createdAt,value
2019-06-10T00:00:42.318Z,95589.34
2019-06-10T00:01:46.476Z,95591.39
2019-06-10T00:02:50.768Z,95595.05
2019-06-10T00:03:55.489Z,95595.05
2019-06-10T00:05:00.294Z,95591.36
2019-06-10T00:06:05.693Z,95599.98
2019-06-10T00:07:11.894Z,95592.33
2019-06-10T00:08:16.083Z,95598.73
2019-06-10T00:09:21.125Z,95597.56
2019-06-10T00:10:25.478Z,95603.03
2019-06-10T00:11:31.382Z,95598.06
2019-06-10T00:12:34.674Z,95601.89
2019-06-10T00:13:38.311Z,95594.02
2019-06-10T00:14:42.479Z,95591.67
2019-06-10T00:15:46.016Z,95591.27
2019-06-10T00:16:50.954Z,95599.71
2019-06-10T00:18:16.269Z,95595.70
2019-06-10T00:19:02.855Z,95588.59
2019-06-10T00:20:11.175Z,95583.16
2019-06-10T00:21:15.342Z,95577.96
2019-06-10T00:22:21.414Z,95576.59
2019-06-10T00:23:24.677Z,95577.92
2019-06-10T00:24:28.224Z,95574.20
2019-06-10T00:25:32.422Z,95572.59
2019-06-10T00:26:35.883Z,95568.31
2019-06-10T00:27:42.111Z,95575.94
2019-06-10T00:28:45.142Z,95565.57
2019-06-10T00:29:51.293Z,95557.87
2019-06-10T00:30:54.573Z,95552.13
2019-06-10T00:31:58.628Z,95547.81
2019-06-10T00:33:06.072Z,95553.42
2019-06-10T00:34:12.085Z,95549.56
2019-06-10T00:35:15.489Z,95550.59
2019-06-10T00:36:21.548Z,95549.48
2019-06-10T00:37:24.869Z,95548.45
2019-06-10T00:38:28.926Z,95541.17
2019-06-10T00:39:32.403Z,95547.16
2019-06-10T00:40:36.848Z,95542.68
2019-06-10T00:41:42.642Z,95546.98
2019-06-10T00:42:46.352Z,95537.17
2019-06-10T00:43:51.682Z,95539.16
2019-06-10T00:44:56.151Z,95547.13
2019-06-10T00:46:02.804Z,95547.67
2019-06-10T00:47:08.224Z,95503.53
2019-06-10T00:48:24.064Z,95547.81
2019-06-10T00:49:17.659Z,95547.81
2019-06-10T00:50:24.585Z,95545.67
2019-06-10T00:51:28.800Z,95538.72
2019-06-10T00:52:34.776Z,95543.43
2019-06-10T00:53:38.991Z,95543.29
2019-06-10T00:54:42.811Z,95546.09
2019-06-10T00:55:47.104Z,95548.19
2019-06-10T00:56:51.739Z,95539.88
2019-06-10T00:57:56.174Z,95535.66
2019-06-10T00:59:01.017Z,95531.87
2019-06-10T01:00:14.599Z,95538.89
2019-06-10T01:01:14.610Z,95532.85
2019-06-10T01:02:21.210Z,95537.20
2019-06-10T01:03:24.664Z,95536.45
2019-06-10T01:04:28.782Z,95544.84
2019-06-10T01:05:32.249Z,95548.22
2019-06-10T01:06:36.420Z,95555.17
2019-06-10T01:07:41.414Z,95557.11
2019-06-10T01:08:45.631Z,95558.27
2019-06-10T01:09:51.589Z,95552.73
2019-06-10T01:10:55.161Z,95550.63
2019-06-10T01:12:01.050Z,95548.75
2019-06-10T01:13:05.082Z,95545.23
2019-06-10T01:14:11.817Z,95546.49
2019-06-10T01:15:16.103Z,95536.02
2019-06-10T01:16:21.664Z,95531.02
2019-06-10T01:17:25.443Z,95532.09
2019-06-10T01:18:35.667Z,95527.12
2019-06-10T01:19:34.843Z,95525.78
2019-06-10T01:20:41.022Z,95529.83
2019-06-10T01:21:44.156Z,95537.60
2019-06-10T01:22:47.744Z,95538.23
2019-06-10T01:23:51.775Z,95545.95
2019-06-10T01:24:55.364Z,95542.84
2019-06-10T01:26:01.629Z,95536.99
2019-06-10T01:27:05.474Z,95535.34
2019-06-10T01:28:12.561Z,95533.66
2019-06-10T01:29:15.610Z,95538.14
2019-06-10T01:30:24.574Z,95540.76
2019-06-10T01:31:25.039Z,95539.28
2019-06-10T01:32:31.228Z,95543.59
2019-06-10T01:33:34.253Z,95544.98
2019-06-10T01:34:38.331Z,95549.22
2019-06-10T01:35:41.908Z,95554.11
2019-06-10T01:36:46.098Z,95551.27
2019-06-10T01:37:51.857Z,95551.88
2019-06-10T01:38:55.691Z,95549.95
2019-06-10T01:40:00.750Z,95541.17
2019-06-10T01:41:06.063Z,95550.24
2019-06-10T01:42:11.360Z,95549.87
2019-06-10T01:43:17.360Z,95551.52
2019-06-10T01:44:22.072Z,95546.50
2019-06-10T01:45:26.381Z,95548.42
2019-06-10T01:46:31.649Z,95542.13
2019-06-10T01:47:35.831Z,95545.22
2019-06-10T01:48:47.220Z,95531.34
2019-06-10T01:49:46.432Z,95519.66
2019-06-10T01:50:51.310Z,95501.08
2019-06-10T01:51:55.568Z,95496.19
2019-06-10T01:53:00.548Z,95498.11
2019-06-10T01:54:04.790Z,95501.12
2019-06-10T01:55:12.140Z,95504.86
2019-06-10T01:56:15.845Z,95498.96
2019-06-10T01:57:21.875Z,95498.23
2019-06-10T01:58:25.493Z,95494.70
2019-06-10T01:59:31.107Z,95495.76
2019-06-10T02:00:53.837Z,95499.66
2019-06-10T02:02:04.481Z,95491.05
2019-06-10T02:03:11.600Z,95501.57
2019-06-10T02:04:16.096Z,95497.80
2019-06-10T02:05:22.680Z,95503.36
2019-06-10T02:06:25.875Z,95496.46
2019-06-10T02:07:31.993Z,95448.57
2019-06-10T02:08:35.547Z,95476.20
2019-06-10T02:09:41.071Z,95473.48
2019-06-10T02:10:44.634Z,95473.89
2019-06-10T02:11:51.271Z,95466.03
2019-06-10T02:12:54.012Z,95464.26
2019-06-10T02:13:58.050Z,95470.66
2019-06-10T02:15:01.524Z,95473.31
2019-06-10T02:16:06.102Z,95469.95
2019-06-10T02:17:12.062Z,95471.45
2019-06-10T02:18:16.457Z,95467.91
2019-06-10T02:19:22.789Z,95465.19
2019-06-10T02:20:25.841Z,95471.73
2019-06-10T02:21:31.137Z,95472.48
2019-06-10T02:22:35.348Z,95472.35
2019-06-10T02:23:41.158Z,95478.31
2019-06-10T02:24:44.639Z,95473.55
2019-06-10T02:25:48.365Z,95472.39
2019-06-10T02:26:52.528Z,95479.59
2019-06-10T02:27:55.992Z,95489.05
2019-06-10T02:29:00.694Z,95505.92
2019-06-10T02:30:19.019Z,95512.03
2019-06-10T02:31:18.822Z,95530.02
2019-06-10T02:32:30.739Z,95545.83
2019-06-10T02:33:30.326Z,95576.30
2019-06-10T02:34:36.550Z,95609.59
2019-06-10T02:35:43.986Z,95631.63
2019-06-10T02:36:44.467Z,95647.79
2019-06-10T02:37:48.134Z,95674.80
2019-06-10T02:38:53.950Z,95672.34
2019-06-10T02:39:57.400Z,95670.05
2019-06-10T02:41:04.396Z,95680.70
2019-06-10T02:42:07.960Z,95688.02
2019-06-10T02:43:18.737Z,95693.49
2019-06-10T02:44:29.922Z,95696.98
2019-06-10T02:45:33.714Z,95690.84
2019-06-10T02:46:36.020Z,95671.55
2019-06-10T02:47:38.463Z,95653.11
2019-06-10T02:48:43.649Z,95630.61
2019-06-10T02:49:57.696Z,95612.72
2019-06-10T02:50:56.064Z,95589.44
2019-06-10T02:52:03.388Z,95570.57
2019-06-10T02:53:07.154Z,95579.27
2019-06-10T02:54:15.547Z,95588.37
2019-06-10T02:55:19.652Z,95597.82
2019-06-10T02:56:29.979Z,95595.94
2019-06-10T02:57:35.346Z,95608.80
2019-06-10T02:58:39.303Z,95609.30
2019-06-10T02:59:43.409Z,95605.38
2019-06-10T03:00:48.862Z,95601.03
2019-06-10T03:01:53.659Z,95598.28
2019-06-10T03:02:56.241Z,95596.84
2019-06-10T03:04:04.150Z,95600.37
2019-06-10T03:05:06.491Z,95594.59
2019-06-10T03:06:13.631Z,95595.94
2019-06-10T03:07:15.920Z,95599.20
2019-06-10T03:08:22.177Z,95608.23
2019-06-10T03:09:29.131Z,95605.42
2019-06-10T03:10:36.679Z,95615.51
2019-06-10T03:11:37.577Z,95605.62
2019-06-10T03:12:42.393Z,95618.45
2019-06-10T03:13:46.205Z,95630.00
2019-06-10T03:14:52.496Z,95635.13
2019-06-10T03:15:57.049Z,95660.58
2019-06-10T03:17:04.600Z,95684.08
2019-06-10T03:18:09.434Z,95699.28
2019-06-10T03:19:13.557Z,95702.78
2019-06-10T03:20:17.912Z,95687.31
2019-06-10T03:21:24.204Z,95659.16
2019-06-10T03:22:28.476Z,95644.80
2019-06-10T03:23:32.689Z,95638.80
2019-06-10T03:24:36.276Z,95608.23
2019-06-10T03:25:42.267Z,95594.19
2019-06-10T03:26:45.534Z,95570.34
2019-06-10T03:27:49.647Z,95535.50
2019-06-10T03:28:53.167Z,95511.99
2019-06-10T03:29:57.213Z,95487.88
2019-06-10T03:31:05.103Z,95471.92
2019-06-10T03:32:06.681Z,95460.16
2019-06-10T03:33:13.525Z,95464.94
2019-06-10T03:34:18.116Z,95466.16
2019-06-10T03:35:23.868Z,95464.72
2019-06-10T03:36:27.407Z,95449.00
2019-06-10T03:37:32.883Z,95425.70
2019-06-10T03:38:37.235Z,95414.05
2019-06-10T03:39:42.680Z,95411.21
2019-06-10T03:40:46.675Z,95407.36
2019-06-10T03:41:52.686Z,95405.59
2019-06-10T03:42:56.114Z,95399.84
2019-06-10T03:43:59.704Z,95396.87
2019-06-10T03:45:04.104Z,95402.31
2019-06-10T03:46:08.448Z,95403.59
2019-06-10T03:47:12.555Z,95404.11
2019-06-10T03:48:17.073Z,95414.70
2019-06-10T03:49:23.859Z,95436.03
2019-06-10T03:50:27.477Z,95450.13
2019-06-10T03:51:33.304Z,95458.48
2019-06-10T03:52:37.029Z,95455.13
2019-06-10T03:53:42.617Z,95452.36
2019-06-10T03:54:46.373Z,95430.34
2019-06-10T03:55:52.568Z,95412.03
2019-06-10T03:56:55.757Z,95396.42
2019-06-10T03:58:02.070Z,95398.85
2019-06-10T03:59:06.593Z,95400.45
2019-06-10T04:00:13.911Z,95428.11
2019-06-10T04:01:17.411Z,95453.83
2019-06-10T04:02:23.488Z,95461.80
2019-06-10T04:03:28.084Z,95477.80
2019-06-10T04:04:32.915Z,95478.06
2019-06-10T04:05:36.500Z,95460.45
2019-06-10T04:06:43.899Z,95454.12
2019-06-10T04:07:45.779Z,95467.95
2019-06-10T04:08:52.245Z,95473.27
2019-06-10T04:09:55.220Z,95459.02
2019-06-10T04:10:59.419Z,95463.64
2019-06-10T04:12:02.859Z,95457.16
2019-06-10T04:13:06.965Z,95446.73
2019-06-10T04:14:12.792Z,95450.78
2019-06-10T04:15:17.657Z,95470.36
2019-06-10T04:16:22.701Z,95487.11
2019-06-10T04:17:28.790Z,95463.69
2019-06-10T04:18:32.917Z,95462.48
2019-06-10T04:19:37.430Z,95463.19
2019-06-10T04:20:42.884Z,95486.82
2019-06-10T04:21:47.106Z,95493.84
2019-06-10T04:22:52.299Z,95482.94
2019-06-10T04:23:56.544Z,95466.58
2019-06-10T04:25:02.810Z,95466.98
2019-06-10T04:26:06.065Z,95484.77
2019-06-10T04:27:12.125Z,95461.59
2019-06-10T04:28:15.472Z,95473.45
2019-06-10T04:29:20.019Z,95480.77
2019-06-10T04:30:27.551Z,95479.78
2019-06-10T04:31:32.858Z,95479.71
2019-06-10T04:32:36.234Z,95472.84
2019-06-10T04:33:41.957Z,95465.02
2019-06-10T04:34:45.568Z,95471.52
2019-06-10T04:35:49.183Z,95476.47
2019-06-10T04:36:53.434Z,95470.05
2019-06-10T04:37:56.980Z,95478.23
2019-06-10T04:39:03.177Z,95482.30
2019-06-10T04:40:07.879Z,95486.42
2019-06-10T04:41:12.618Z,95482.01
2019-06-10T04:42:16.420Z,95466.28
2019-06-10T04:43:22.978Z,95468.64
2019-06-10T04:44:26.635Z,95476.47
2019-06-10T04:45:32.471Z,95483.61
2019-06-10T04:46:37.070Z,95483.48
2019-06-10T04:47:43.193Z,95486.86
2019-06-10T04:48:46.413Z,95480.89
2019-06-10T04:49:52.256Z,95461.53
2019-06-10T04:50:55.862Z,95450.86
2019-06-10T04:52:00.165Z,95443.55
2019-06-10T04:53:03.761Z,95435.89
2019-06-10T04:54:07.898Z,95436.13
2019-06-10T04:55:12.616Z,95444.19
2019-06-10T04:56:16.896Z,95441.47
2019-06-10T04:57:21.431Z,95445.39
2019-06-10T04:58:27.575Z,95446.44
2019-06-10T04:59:33.703Z,95439.58
2019-06-10T05:00:37.434Z,95439.15
2019-06-10T05:01:42.528Z,95439.62
2019-06-10T05:02:46.990Z,95428.13
2019-06-10T05:03:52.711Z,95425.91
2019-06-10T05:04:56.620Z,95429.58
2019-06-10T05:06:00.136Z,95438.19
2019-06-10T05:07:04.346Z,95440.49
2019-06-10T05:08:07.927Z,95448.53
2019-06-10T05:09:12.564Z,95452.41
2019-06-10T05:10:19.214Z,95444.40
2019-06-10T05:11:24.258Z,95451.69
2019-06-10T05:12:29.620Z,95449.52
2019-06-10T05:13:33.953Z,95456.66
2019-06-10T05:14:37.391Z,95461.46
2019-06-10T05:15:43.388Z,95460.28
2019-06-10T05:16:48.505Z,95458.75
2019-06-10T05:17:52.795Z,95458.58
2019-06-10T05:18:56.396Z,95455.71
2019-06-10T05:20:02.613Z,95455.83
2019-06-10T05:21:05.896Z,95454.81
2019-06-10T05:22:12.238Z,95454.89
2019-06-10T05:23:15.268Z,95451.16
2019-06-10T05:24:19.751Z,95450.83
2019-06-10T05:25:25.348Z,95454.70
2019-06-10T05:26:30.482Z,95453.44
2019-06-10T05:27:34.437Z,95455.60
2019-06-10T05:28:39.041Z,95458.26
2019-06-10T05:29:42.781Z,95458.23
2019-06-10T05:30:46.954Z,95461.86
2019-06-10T05:31:52.276Z,95459.89
2019-06-10T05:32:56.871Z,95457.13
2019-06-10T05:34:02.302Z,95449.05
2019-06-10T05:35:06.792Z,95451.02
2019-06-10T05:36:12.836Z,95445.09
2019-06-10T05:37:16.228Z,95441.77
2019-06-10T05:38:23.437Z,95445.09
2019-06-10T05:39:27.568Z,95438.61
2019-06-10T05:40:34.044Z,95445.25
2019-06-10T05:41:36.739Z,95449.80
2019-06-10T05:42:42.430Z,95444.88
2019-06-10T05:43:46.002Z,95444.73
2019-06-10T05:44:49.542Z,95448.68
2019-06-10T05:45:53.701Z,95453.80
2019-06-10T05:46:57.353Z,95457.11
2019-06-10T05:48:02.785Z,95467.05
2019-06-10T05:49:09.307Z,95486.68
2019-06-10T05:50:13.725Z,95523.09
2019-06-10T05:51:17.300Z,95551.38
2019-06-10T05:52:23.424Z,95559.22
2019-06-10T05:53:27.652Z,95559.64
2019-06-10T05:54:34.017Z,95556.75
2019-06-10T05:55:37.617Z,95553.91
2019-06-10T05:56:43.250Z,95563.81
2019-06-10T05:57:46.969Z,95562.91
2019-06-10T05:58:52.511Z,95550.87
2019-06-10T05:59:56.177Z,95524.80
2019-06-10T06:01:02.505Z,95528.94
2019-06-10T06:02:05.635Z,95532.33
2019-06-10T06:03:11.958Z,95538.72
2019-06-10T06:04:14.965Z,95534.78
2019-06-10T06:05:19.120Z,95524.08
2019-06-10T06:06:23.127Z,95515.52
2019-06-10T06:07:27.482Z,95505.72
2019-06-10T06:08:33.460Z,95504.03
2019-06-10T06:09:37.787Z,95493.92
2019-06-10T06:10:42.276Z,95482.60
2019-06-10T06:11:46.581Z,95489.57
2019-06-10T06:12:52.540Z,95498.23
2019-06-10T06:13:55.932Z,95513.00
2019-06-10T06:14:59.525Z,95525.18
2019-06-10T06:16:05.290Z,95546.38
2019-06-10T06:17:08.888Z,95547.20
2019-06-10T06:18:14.127Z,95537.41
2019-06-10T06:19:17.757Z,95531.50
2019-06-10T06:20:23.519Z,95521.98
2019-06-10T06:21:33.440Z,95519.71
2019-06-10T06:22:35.518Z,95522.27
2019-06-10T06:23:38.320Z,95531.64
2019-06-10T06:24:42.853Z,95533.73
2019-06-10T06:25:47.067Z,95531.72
2019-06-10T06:26:53.400Z,95533.16
2019-06-10T06:27:56.686Z,95527.41
2019-06-10T06:29:02.211Z,95519.28
2019-06-10T06:30:14.670Z,95519.11
2019-06-10T06:31:15.195Z,95523.53
2019-06-10T06:32:18.720Z,95525.75
2019-06-10T06:33:22.862Z,95535.05
2019-06-10T06:34:26.933Z,95536.39
2019-06-10T06:35:33.633Z,95533.69
2019-06-10T06:36:37.027Z,95531.62
2019-06-10T06:37:42.880Z,95538.83
2019-06-10T06:38:46.676Z,95540.21
2019-06-10T06:39:52.359Z,95546.55
2019-06-10T06:40:55.961Z,95551.58
2019-06-10T06:42:02.196Z,95549.60
2019-06-10T06:43:06.311Z,95559.83
2019-06-10T06:44:12.733Z,95563.45
2019-06-10T06:45:17.035Z,95560.97
2019-06-10T06:46:23.442Z,95551.47
2019-06-10T06:47:26.253Z,95547.12
2019-06-10T06:48:33.599Z,95541.94
2019-06-10T06:49:37.058Z,95554.17
2019-06-10T06:51:00.242Z,95553.66
2019-06-10T06:51:54.669Z,95534.78
2019-06-10T06:53:18.740Z,95519.69
2019-06-10T06:53:58.024Z,95511.91
2019-06-10T06:55:02.600Z,95518.06
2019-06-10T06:56:06.231Z,95527.67
2019-06-10T06:57:10.348Z,95544.67
2019-06-10T06:58:13.951Z,95562.46
2019-06-10T06:59:18.083Z,95572.86
2019-06-10T07:00:43.053Z,95570.59
2019-06-10T07:01:34.672Z,95569.61
2019-06-10T07:02:37.555Z,95562.91
2019-06-10T07:03:45.128Z,95563.75
2019-06-10T07:04:47.452Z,95560.19
2019-06-10T07:05:52.990Z,95554.86
2019-06-10T07:06:57.085Z,95555.44
2019-06-10T07:08:02.829Z,95557.35
2019-06-10T07:09:08.277Z,95546.32
2019-06-10T07:10:12.909Z,95540.74
2019-06-10T07:11:17.959Z,95538.38
2019-06-10T07:12:25.106Z,95526.72
2019-06-10T07:13:28.654Z,95524.78
2019-06-10T07:14:36.871Z,95516.86
2019-06-10T07:15:48.105Z,95512.41
2019-06-10T07:16:52.965Z,95516.39
2019-06-10T07:17:56.591Z,95518.09
2019-06-10T07:19:02.609Z,95525.25
2019-06-10T07:20:07.350Z,95530.97
2019-06-10T07:21:13.239Z,95528.83
2019-06-10T07:22:16.965Z,95535.72
2019-06-10T07:23:22.522Z,95533.68
2019-06-10T07:24:26.192Z,95529.52
2019-06-10T07:25:34.124Z,95521.28
2019-06-10T07:26:40.527Z,95524.69
2019-06-10T07:27:45.109Z,95525.84
2019-06-10T07:28:47.643Z,95522.57
2019-06-10T07:29:53.020Z,95528.75
2019-06-10T07:30:56.690Z,95526.59
2019-06-10T07:32:03.217Z,95524.45
2019-06-10T07:33:05.985Z,95523.60
2019-06-10T07:34:10.043Z,95514.10
2019-06-10T07:35:13.648Z,95514.33
2019-06-10T07:36:17.859Z,95496.63
2019-06-10T07:37:23.234Z,95495.48
2019-06-10T07:38:27.155Z,95491.58
2019-06-10T07:39:30.669Z,95477.64
2019-06-10T07:40:36.212Z,95470.61
2019-06-10T07:41:42.045Z,95463.94
2019-06-10T07:42:45.883Z,95477.81
2019-06-10T07:43:49.886Z,95473.14
2019-06-10T07:44:54.576Z,95475.68
2019-06-10T07:45:58.083Z,95470.79
2019-06-10T07:47:02.699Z,95471.54
2019-06-10T07:48:06.407Z,95470.55
2019-06-10T07:49:13.235Z,95476.06
2019-06-10T07:50:15.971Z,95472.98
2019-06-10T07:51:22.387Z,95466.34
2019-06-10T07:52:25.386Z,95471.13
2019-06-10T07:53:29.509Z,95474.73
2019-06-10T07:54:34.444Z,95475.21
2019-06-10T07:55:39.591Z,95477.12
2019-06-10T07:56:50.034Z,95473.81
2019-06-10T07:57:49.138Z,95469.57
2019-06-10T07:58:53.020Z,95469.02
2019-06-10T07:59:57.101Z,95469.97
2019-06-10T08:01:02.609Z,95460.25
2019-06-10T08:02:06.449Z,95462.97
2019-06-10T08:03:09.889Z,95455.88
2019-06-10T08:04:14.045Z,95457.97
2019-06-10T08:05:18.133Z,95448.60
2019-06-10T08:06:23.096Z,95439.43
2019-06-10T08:07:26.617Z,95438.09
2019-06-10T08:08:32.643Z,95433.37
2019-06-10T08:09:37.280Z,95431.00
2019-06-10T08:10:44.766Z,95431.89
2019-06-10T08:11:48.783Z,95430.74
2019-06-10T08:12:53.005Z,95430.02
2019-06-10T08:13:56.514Z,95421.54
2019-06-10T08:15:02.758Z,95427.48
2019-06-10T08:16:05.926Z,95431.80
2019-06-10T08:17:10.026Z,95431.40
2019-06-10T08:18:13.484Z,95432.96
2019-06-10T08:19:29.395Z,95431.64
2019-06-10T08:20:43.227Z,95430.91
2019-06-10T08:21:48.981Z,95434.03
2019-06-10T08:22:57.119Z,95439.39
2019-06-10T08:23:57.582Z,95437.75
2019-06-10T08:25:04.844Z,95437.31
2019-06-10T08:26:07.009Z,95430.34
2019-06-10T08:27:12.080Z,95432.72
2019-06-10T08:28:15.878Z,95435.56
2019-06-10T08:29:19.916Z,95426.80
2019-06-10T08:30:27.411Z,95429.93
2019-06-10T08:31:29.549Z,95427.97
2019-06-10T08:32:33.572Z,95429.47
2019-06-10T08:33:39.010Z,95427.86
2019-06-10T08:34:45.033Z,95429.20
2019-06-10T08:35:57.373Z,95429.48
2019-06-10T08:36:54.541Z,95435.72
2019-06-10T08:37:58.740Z,95437.36
2019-06-10T08:39:03.223Z,95440.78
2019-06-10T08:40:08.088Z,95428.76
2019-06-10T08:41:12.351Z,95432.92
2019-06-10T08:42:16.611Z,95433.23
2019-06-10T08:43:22.433Z,95425.94
2019-06-10T08:44:25.898Z,95440.81
2019-06-10T08:45:29.488Z,95438.57
2019-06-10T08:46:33.584Z,95438.02
2019-06-10T08:47:39.245Z,95440.10
2019-06-10T08:48:46.151Z,95440.53
2019-06-10T08:49:49.177Z,95446.18
2019-06-10T08:50:54.431Z,95436.23
2019-06-10T08:51:57.898Z,95436.36
2019-06-10T08:53:13.982Z,95405.77
2019-06-10T08:54:07.341Z,95423.27
2019-06-10T08:55:12.569Z,95419.55
2019-06-10T08:56:16.149Z,95412.56
2019-06-10T08:57:20.210Z,95411.38
2019-06-10T08:58:23.842Z,95404.69
2019-06-10T08:59:28.022Z,95407.77
2019-06-10T09:00:33.200Z,95402.12
2019-06-10T09:01:40.454Z,95393.62
2019-06-10T09:02:46.889Z,95398.55
2019-06-10T09:03:50.577Z,95396.17
2019-06-10T09:04:54.338Z,95400.19
2019-06-10T09:05:58.668Z,95407.16
2019-06-10T09:07:04.208Z,95410.42
2019-06-10T09:08:07.965Z,95405.23
2019-06-10T09:09:12.911Z,95403.42
2019-06-10T09:10:19.249Z,95415.31
2019-06-10T09:11:23.781Z,95412.63
2019-06-10T09:12:33.211Z,95421.11
2019-06-10T09:13:33.940Z,95419.49
2019-06-10T09:14:38.654Z,95414.83
2019-06-10T09:15:45.120Z,95422.09
2019-06-10T09:16:49.398Z,95418.80
2019-06-10T09:17:56.163Z,95424.43
2019-06-10T09:18:59.368Z,95428.75
2019-06-10T09:20:04.760Z,95430.66
2019-06-10T09:21:08.875Z,95433.20
2019-06-10T09:22:12.642Z,95431.55
2019-06-10T09:23:22.190Z,95425.28
2019-06-10T09:24:22.484Z,95439.59
2019-06-10T09:25:26.756Z,95434.21
2019-06-10T09:26:33.480Z,95432.25
2019-06-10T09:27:36.724Z,95441.79
2019-06-10T09:28:41.509Z,95432.27
2019-06-10T09:29:49.852Z,95438.70
2019-06-10T09:30:58.001Z,95434.68
2019-06-10T09:31:57.262Z,95436.64
2019-06-10T09:33:04.158Z,95435.14
2019-06-10T09:34:06.575Z,95429.96
2019-06-10T09:35:12.635Z,95430.44
2019-06-10T09:36:16.333Z,95431.43
2019-06-10T09:37:20.143Z,95432.05
2019-06-10T09:38:24.357Z,95427.86
2019-06-10T09:39:27.961Z,95427.84
2019-06-10T09:41:01.279Z,95416.64
2019-06-10T09:42:05.307Z,95417.50
2019-06-10T09:43:05.934Z,95415.27
2019-06-10T09:44:09.493Z,95414.93
2019-06-10T09:45:13.927Z,95416.73
2019-06-10T09:46:19.690Z,95418.69
2019-06-10T09:47:23.793Z,95423.02
2019-06-10T09:48:27.497Z,95428.22
2019-06-10T09:49:33.065Z,95423.77
2019-06-10T09:50:48.821Z,95429.71
2019-06-10T09:51:51.452Z,95430.78
2019-06-10T09:52:57.066Z,95432.54
2019-06-10T09:54:05.628Z,95431.05
2019-06-10T09:55:06.665Z,95434.30
2019-06-10T09:56:12.545Z,95435.97
2019-06-10T09:57:16.188Z,95438.65
2019-06-10T09:58:22.969Z,95441.00
2019-06-10T09:59:25.863Z,95438.89
2019-06-10T10:00:48.495Z,95442.25
2019-06-10T10:01:56.679Z,95452.64
2019-06-10T10:02:56.252Z,95446.02
2019-06-10T10:04:00.719Z,95445.47
2019-06-10T10:05:07.545Z,95452.84
2019-06-10T10:06:15.443Z,95451.98
2019-06-10T10:07:17.209Z,95442.81
2019-06-10T10:08:23.046Z,95440.08
2019-06-10T10:09:26.900Z,95443.75
2019-06-10T10:10:38.386Z,95438.54
2019-06-10T10:11:45.577Z,95439.69
2019-06-10T10:12:49.055Z,95437.24
2019-06-10T10:13:53.736Z,95438.27
2019-06-10T10:14:57.263Z,95434.87
2019-06-10T10:16:02.555Z,95432.14
2019-06-10T10:17:06.367Z,95426.07
2019-06-10T10:18:13.366Z,95432.70
2019-06-10T10:19:17.789Z,95431.31
2019-06-10T10:20:22.830Z,95422.35
2019-06-10T10:21:26.408Z,95419.09
2019-06-10T10:22:30.594Z,95418.41
2019-06-10T10:23:50.461Z,95411.58
2019-06-10T10:24:42.486Z,95415.95
2019-06-10T10:25:47.814Z,95407.80
2019-06-10T10:26:57.151Z,95405.89
2019-06-10T10:27:57.741Z,95400.87
2019-06-10T10:29:02.758Z,95397.69
2019-06-10T10:30:08.742Z,95389.63
2019-06-10T10:31:13.213Z,95391.19
2019-06-10T10:32:16.829Z,95384.30
2019-06-10T10:33:24.361Z,95386.44
2019-06-10T10:34:26.429Z,95381.80
2019-06-10T10:35:32.654Z,95379.23
2019-06-10T10:36:35.939Z,95378.81
2019-06-10T10:37:40.051Z,95374.53
2019-06-10T10:38:44.779Z,95372.59
2019-06-10T10:39:49.225Z,95367.29
2019-06-10T10:40:58.601Z,95358.73
2019-06-10T10:41:58.648Z,95361.55
2019-06-10T10:43:22.359Z,95354.83
2019-06-10T10:44:08.102Z,95346.23
2019-06-10T10:45:13.794Z,95350.73
2019-06-10T10:46:18.102Z,95353.18
2019-06-10T10:47:25.145Z,95345.25
2019-06-10T10:48:27.498Z,95341.00
2019-06-10T10:49:32.473Z,95342.83
2019-06-10T10:50:36.809Z,95350.73
2019-06-10T10:51:40.319Z,95347.04
2019-06-10T10:52:46.343Z,95343.97
2019-06-10T10:54:15.517Z,95338.11
2019-06-10T10:54:55.656Z,95336.09
2019-06-10T10:55:59.167Z,95335.28
2019-06-10T10:57:03.420Z,95329.60
2019-06-10T10:58:07.093Z,95321.37
2019-06-10T10:59:13.275Z,95322.16
2019-06-10T11:00:19.558Z,95320.27
2019-06-10T11:01:23.879Z,95321.31
2019-06-10T11:02:27.357Z,95319.80
2019-06-10T11:03:33.586Z,95312.59
2019-06-10T11:04:42.079Z,95314.80
2019-06-10T11:05:49.480Z,95316.60
2019-06-10T11:06:54.298Z,95321.30
2019-06-10T11:07:57.145Z,95312.36
2019-06-10T11:09:00.698Z,95304.97
2019-06-10T11:10:06.974Z,95298.01
2019-06-10T11:11:13.518Z,95299.09
2019-06-10T11:12:18.323Z,95300.16
2019-06-10T11:13:24.886Z,95299.21
2019-06-10T11:14:29.856Z,95299.33
2019-06-10T11:15:34.009Z,95296.97
2019-06-10T11:16:38.182Z,95295.36
2019-06-10T11:17:42.682Z,95296.77
2019-06-10T11:18:47.474Z,95292.89
2019-06-10T11:19:53.736Z,95290.45
2019-06-10T11:21:01.254Z,95289.22
2019-06-10T11:22:03.075Z,95285.81
2019-06-10T11:23:07.553Z,95283.46
2019-06-10T11:24:14.189Z,95289.36
2019-06-10T11:25:17.097Z,95288.97
2019-06-10T11:26:22.849Z,95282.47
2019-06-10T11:27:26.581Z,95283.30
2019-06-10T11:28:32.112Z,95290.43
2019-06-10T11:29:36.117Z,95294.47
2019-06-10T11:30:42.475Z,95286.67
2019-06-10T11:31:46.298Z,95285.60
2019-06-10T11:32:53.540Z,95286.09
2019-06-10T11:33:58.960Z,95285.00
2019-06-10T11:35:02.929Z,95276.33
2019-06-10T11:36:07.105Z,95274.19
2019-06-10T11:37:12.652Z,95276.48
2019-06-10T11:38:16.476Z,95270.69
2019-06-10T11:39:22.442Z,95269.58
2019-06-10T11:40:26.260Z,95264.66
2019-06-10T11:41:32.291Z,95266.84
2019-06-10T11:42:35.783Z,95266.47
2019-06-10T11:43:39.303Z,95263.23
2019-06-10T11:44:43.894Z,95270.95
2019-06-10T11:45:52.115Z,95262.61
2019-06-10T11:46:54.889Z,95259.41
2019-06-10T11:47:59.130Z,95251.70
2019-06-10T11:49:12.421Z,95244.94
2019-06-10T11:50:16.601Z,95245.41
2019-06-10T11:51:23.266Z,95235.72
2019-06-10T11:52:26.153Z,95234.61
2019-06-10T11:53:30.193Z,95234.27
2019-06-10T11:54:47.813Z,95235.09
2019-06-10T11:55:39.619Z,95236.05
2019-06-10T11:56:43.090Z,95239.25
2019-06-10T11:57:47.888Z,95242.34
2019-06-10T11:58:54.935Z,95240.55
2019-06-10T11:59:58.318Z,95240.41
2019-06-10T12:01:03.865Z,95238.63
2019-06-10T12:02:08.685Z,95235.20
2019-06-10T12:03:13.141Z,95234.58
2019-06-10T12:04:17.250Z,95234.89
2019-06-10T12:05:23.435Z,95236.38
2019-06-10T12:06:26.793Z,95241.50
2019-06-10T12:07:33.056Z,95240.32
2019-06-10T12:08:36.124Z,95245.02
2019-06-10T12:09:39.591Z,95240.30
2019-06-10T12:10:43.632Z,95238.80
2019-06-10T12:11:47.170Z,95238.21
2019-06-10T12:12:55.117Z,95229.10
2019-06-10T12:14:01.935Z,95224.56
2019-06-10T12:15:02.482Z,95216.97
2019-06-10T12:16:51.539Z,95208.88
2019-06-10T12:17:25.058Z,95211.22
2019-06-10T12:18:18.663Z,95206.05
2019-06-10T12:19:23.552Z,95200.52
2019-06-10T12:20:28.576Z,95194.95
2019-06-10T12:21:33.181Z,95192.56
2019-06-10T12:22:37.407Z,95184.31
2019-06-10T12:23:43.498Z,95183.59
2019-06-10T12:24:46.685Z,95180.80
2019-06-10T12:25:54.553Z,95177.76
2019-06-10T12:26:58.373Z,95172.35
2019-06-10T12:28:07.004Z,95172.73
2019-06-10T12:29:06.923Z,95169.42
2019-06-10T12:30:13.243Z,95166.60
2019-06-10T12:31:17.323Z,95168.39
2019-06-10T12:32:22.520Z,95163.84
2019-06-10T12:33:26.195Z,95167.77
2019-06-10T12:34:33.018Z,95167.78
2019-06-10T12:35:35.651Z,95162.28
2019-06-10T12:36:39.544Z,95159.44
2019-06-10T12:37:43.423Z,95157.03
2019-06-10T12:38:47.617Z,95151.48
2019-06-10T12:39:54.382Z,95139.20
2019-06-10T12:40:58.966Z,95151.88
2019-06-10T12:42:06.107Z,95125.88
2019-06-10T12:43:08.692Z,95133.95